sensor_id;sensor_type;location;lat;lon;timestamp;P1;durP1;ratioP1;P2;durP2;ratioP2
25824;SDS011;13658;44.534;18.694;2023-02-17T00:01:01;271.50;;;123.05;;
25824;SDS011;13658;44.534;18.694;2023-02-17T00:03:53;281.63;;;123.25;;
25824;SDS011;13658;44.534;18.694;2023-02-17T00:06:21;301.58;;;132.30;;
25824;SDS011;13658;44.534;18.694;2023-02-17T00:08:50;266.58;;;121.18;;
25824;SDS011;13658;44.534;18.694;2023-02-17T00:11:16;284.13;;;127.38;;
25824;SDS011;13658;44.534;18.694;2023-02-17T00:13:43;250.68;;;109.70;;
25824;SDS011;13658;44.534;18.694;2023-02-17T00:16:19;244.57;;;110.47;;
25824;SDS011;13658;44.534;18.694;2023-02-17T00:18:51;244.45;;;110.75;;
25824;SDS011;13658;44.534;18.694;2023-02-17T00:21:22;262.92;;;118.05;;
25824;SDS011;13658;44.534;18.694;2023-02-17T00:23:51;249.10;;;115.20;;
25824;SDS011;13658;44.534;18.694;2023-02-17T00:26:17;241.70;;;110.13;;
25824;SDS011;13658;44.534;18.694;2023-02-17T00:28:44;238.98;;;111.18;;
25824;SDS011;13658;44.534;18.694;2023-02-17T00:31:15;235.63;;;110.35;;
25824;SDS011;13658;44.534;18.694;2023-02-17T00:33:43;241.10;;;108.13;;
25824;SDS011;13658;44.534;18.694;2023-02-17T00:36:10;253.38;;;116.50;;
25824;SDS011;13658;44.534;18.694;2023-02-17T00:38:38;259.70;;;116.93;;
25824;SDS011;13658;44.534;18.694;2023-02-17T00:41:04;256.58;;;114.65;;
25824;SDS011;13658;44.534;18.694;2023-02-17T00:43:30;225.27;;;103.30;;
25824;SDS011;13658;44.534;18.694;2023-02-17T00:45:56;243.88;;;113.00;;
25824;SDS011;13658;44.534;18.694;2023-02-17T00:48:23;245.77;;;110.10;;
25824;SDS011;13658;44.534;18.694;2023-02-17T00:50:49;248.80;;;115.90;;
25824;SDS011;13658;44.534;18.694;2023-02-17T00:53:15;247.05;;;116.50;;
25824;SDS011;13658;44.534;18.694;2023-02-17T00:55:41;254.65;;;117.00;;
25824;SDS011;13658;44.534;18.694;2023-02-17T00:58:07;241.80;;;109.22;;
25824;SDS011;13658;44.534;18.694;2023-02-17T01:00:33;248.30;;;110.28;;
25824;SDS011;13658;44.534;18.694;2023-02-17T01:02:59;242.38;;;105.88;;
25824;SDS011;13658;44.534;18.694;2023-02-17T01:05:25;248.93;;;111.72;;
25824;SDS011;13658;44.534;18.694;2023-02-17T01:07:51;237.32;;;109.75;;
25824;SDS011;13658;44.534;18.694;2023-02-17T01:10:17;221.52;;;100.78;;
25824;SDS011;13658;44.534;18.694;2023-02-17T01:12:43;201.63;;;90.03;;
25824;SDS011;13658;44.534;18.694;2023-02-17T01:15:09;197.27;;;89.57;;
25824;SDS011;13658;44.534;18.694;2023-02-17T01:17:35;184.57;;;83.25;;
25824;SDS011;13658;44.534;18.694;2023-02-17T01:20:01;185.77;;;84.30;;
25824;SDS011;13658;44.534;18.694;2023-02-17T01:22:27;179.73;;;79.95;;
25824;SDS011;13658;44.534;18.694;2023-02-17T01:24:53;205.88;;;95.15;;
25824;SDS011;13658;44.534;18.694;2023-02-17T01:27:19;193.13;;;87.50;;
25824;SDS011;13658;44.534;18.694;2023-02-17T01:29:46;180.15;;;80.32;;
25824;SDS011;13658;44.534;18.694;2023-02-17T01:32:12;175.77;;;84.10;;
25824;SDS011;13658;44.534;18.694;2023-02-17T01:34:38;193.75;;;86.78;;
25824;SDS011;13658;44.534;18.694;2023-02-17T01:37:05;207.73;;;94.50;;
25824;SDS011;13658;44.534;18.694;2023-02-17T01:39:34;205.25;;;94.10;;
25824;SDS011;13658;44.534;18.694;2023-02-17T01:42:00;207.13;;;97.90;;
25824;SDS011;13658;44.534;18.694;2023-02-17T01:44:26;221.75;;;106.35;;
25824;SDS011;13658;44.534;18.694;2023-02-17T01:46:55;224.73;;;104.90;;
25824;SDS011;13658;44.534;18.694;2023-02-17T01:49:29;209.57;;;95.55;;
25824;SDS011;13658;44.534;18.694;2023-02-17T01:52:12;208.40;;;96.80;;
25824;SDS011;13658;44.534;18.694;2023-02-17T01:54:41;216.75;;;94.93;;
25824;SDS011;13658;44.534;18.694;2023-02-17T01:57:12;212.68;;;97.18;;
25824;SDS011;13658;44.534;18.694;2023-02-17T01:59:42;185.70;;;81.88;;
25824;SDS011;13658;44.534;18.694;2023-02-17T02:02:09;156.13;;;73.72;;
25824;SDS011;13658;44.534;18.694;2023-02-17T02:04:37;157.27;;;71.07;;
25824;SDS011;13658;44.534;18.694;2023-02-17T02:07:09;137.55;;;64.75;;
25824;SDS011;13658;44.534;18.694;2023-02-17T02:09:42;162.57;;;73.20;;
25824;SDS011;13658;44.534;18.694;2023-02-17T02:12:22;168.68;;;77.07;;
25824;SDS011;13658;44.534;18.694;2023-02-17T02:14:57;166.95;;;80.00;;
25824;SDS011;13658;44.534;18.694;2023-02-17T02:17:43;162.00;;;76.28;;
25824;SDS011;13658;44.534;18.694;2023-02-17T02:34:36;154.85;;;68.15;;
25824;SDS011;13658;44.534;18.694;2023-02-17T02:39:43;141.98;;;66.65;;
25824;SDS011;13658;44.534;18.694;2023-02-17T02:42:13;140.13;;;62.03;;
25824;SDS011;13658;44.534;18.694;2023-02-17T02:44:43;139.23;;;62.08;;
25824;SDS011;13658;44.534;18.694;2023-02-17T02:50:06;130.18;;;59.88;;
25824;SDS011;13658;44.534;18.694;2023-02-17T02:52:57;151.65;;;66.97;;
25824;SDS011;13658;44.534;18.694;2023-02-17T02:55:42;144.30;;;63.17;;
25824;SDS011;13658;44.534;18.694;2023-02-17T02:58:21;122.38;;;57.35;;
25824;SDS011;13658;44.534;18.694;2023-02-17T03:01:20;123.45;;;56.25;;
25824;SDS011;13658;44.534;18.694;2023-02-17T03:04:29;126.75;;;57.38;;
25824;SDS011;13658;44.534;18.694;2023-02-17T03:07:08;133.00;;;61.35;;
25824;SDS011;13658;44.534;18.694;2023-02-17T03:09:49;137.45;;;61.75;;
25824;SDS011;13658;44.534;18.694;2023-02-17T03:12:17;127.07;;;59.28;;
25824;SDS011;13658;44.534;18.694;2023-02-17T03:14:45;138.45;;;60.45;;
25824;SDS011;13658;44.534;18.694;2023-02-17T03:17:15;131.27;;;62.05;;
25824;SDS011;13658;44.534;18.694;2023-02-17T03:19:41;156.68;;;71.53;;
25824;SDS011;13658;44.534;18.694;2023-02-17T03:22:18;156.82;;;69.97;;
25824;SDS011;13658;44.534;18.694;2023-02-17T03:24:48;143.75;;;66.80;;
25824;SDS011;13658;44.534;18.694;2023-02-17T03:27:14;142.68;;;67.70;;
25824;SDS011;13658;44.534;18.694;2023-02-17T03:29:40;145.45;;;65.40;;
25824;SDS011;13658;44.534;18.694;2023-02-17T03:32:06;139.85;;;63.97;;
25824;SDS011;13658;44.534;18.694;2023-02-17T03:34:32;130.05;;;60.78;;
25824;SDS011;13658;44.534;18.694;2023-02-17T03:36:58;135.48;;;59.90;;
25824;SDS011;13658;44.534;18.694;2023-02-17T03:39:24;122.20;;;56.53;;
25824;SDS011;13658;44.534;18.694;2023-02-17T03:41:51;133.73;;;58.90;;
25824;SDS011;13658;44.534;18.694;2023-02-17T03:44:18;122.53;;;56.17;;
25824;SDS011;13658;44.534;18.694;2023-02-17T03:46:44;116.35;;;53.67;;
25824;SDS011;13658;44.534;18.694;2023-02-17T03:49:10;122.32;;;55.22;;
25824;SDS011;13658;44.534;18.694;2023-02-17T03:51:37;108.45;;;51.47;;
25824;SDS011;13658;44.534;18.694;2023-02-17T03:54:03;116.93;;;51.47;;
25824;SDS011;13658;44.534;18.694;2023-02-17T03:56:30;116.38;;;54.38;;
25824;SDS011;13658;44.534;18.694;2023-02-17T03:58:56;108.65;;;51.72;;
25824;SDS011;13658;44.534;18.694;2023-02-17T04:01:23;112.88;;;53.70;;
25824;SDS011;13658;44.534;18.694;2023-02-17T04:03:49;119.82;;;54.35;;
25824;SDS011;13658;44.534;18.694;2023-02-17T04:06:15;128.15;;;57.40;;
25824;SDS011;13658;44.534;18.694;2023-02-17T04:08:41;130.55;;;57.42;;
25824;SDS011;13658;44.534;18.694;2023-02-17T04:11:08;123.78;;;57.45;;
25824;SDS011;13658;44.534;18.694;2023-02-17T04:13:34;132.05;;;57.00;;
25824;SDS011;13658;44.534;18.694;2023-02-17T04:16:02;127.25;;;59.67;;
25824;SDS011;13658;44.534;18.694;2023-02-17T04:18:29;128.15;;;58.28;;
25824;SDS011;13658;44.534;18.694;2023-02-17T04:20:56;128.98;;;58.97;;
25824;SDS011;13658;44.534;18.694;2023-02-17T04:23:22;143.32;;;63.17;;
25824;SDS011;13658;44.534;18.694;2023-02-17T04:25:48;149.32;;;67.40;;
25824;SDS011;13658;44.534;18.694;2023-02-17T04:28:15;161.25;;;70.63;;
25824;SDS011;13658;44.534;18.694;2023-02-17T04:30:44;154.75;;;69.57;;
25824;SDS011;13658;44.534;18.694;2023-02-17T04:33:12;156.85;;;68.95;;
25824;SDS011;13658;44.534;18.694;2023-02-17T04:35:38;155.00;;;69.40;;
25824;SDS011;13658;44.534;18.694;2023-02-17T04:38:05;148.25;;;68.35;;
25824;SDS011;13658;44.534;18.694;2023-02-17T04:40:32;130.18;;;58.95;;
25824;SDS011;13658;44.534;18.694;2023-02-17T04:42:58;133.93;;;58.70;;
25824;SDS011;13658;44.534;18.694;2023-02-17T04:45:24;129.13;;;60.28;;
25824;SDS011;13658;44.534;18.694;2023-02-17T04:47:50;134.60;;;61.58;;
25824;SDS011;13658;44.534;18.694;2023-02-17T04:50:16;156.57;;;65.22;;
25824;SDS011;13658;44.534;18.694;2023-02-17T04:52:42;150.05;;;64.55;;
25824;SDS011;13658;44.534;18.694;2023-02-17T04:55:08;141.95;;;61.55;;
25824;SDS011;13658;44.534;18.694;2023-02-17T04:57:34;145.05;;;63.17;;
25824;SDS011;13658;44.534;18.694;2023-02-17T05:00:00;127.53;;;57.97;;
25824;SDS011;13658;44.534;18.694;2023-02-17T05:02:27;122.88;;;55.08;;
25824;SDS011;13658;44.534;18.694;2023-02-17T05:04:54;134.85;;;59.45;;
25824;SDS011;13658;44.534;18.694;2023-02-17T05:07:21;131.23;;;61.78;;
25824;SDS011;13658;44.534;18.694;2023-02-17T05:09:47;117.93;;;55.67;;
25824;SDS011;13658;44.534;18.694;2023-02-17T05:12:13;134.85;;;60.70;;
25824;SDS011;13658;44.534;18.694;2023-02-17T05:14:39;132.57;;;61.55;;
25824;SDS011;13658;44.534;18.694;2023-02-17T05:17:05;138.60;;;61.65;;
25824;SDS011;13658;44.534;18.694;2023-02-17T05:19:31;140.18;;;61.42;;
25824;SDS011;13658;44.534;18.694;2023-02-17T05:21:57;145.98;;;62.33;;
25824;SDS011;13658;44.534;18.694;2023-02-17T05:24:23;152.05;;;69.05;;
25824;SDS011;13658;44.534;18.694;2023-02-17T05:26:49;160.15;;;70.32;;
25824;SDS011;13658;44.534;18.694;2023-02-17T05:29:14;189.02;;;81.53;;
25824;SDS011;13658;44.534;18.694;2023-02-17T05:31:40;175.68;;;74.38;;
25824;SDS011;13658;44.534;18.694;2023-02-17T05:34:06;169.48;;;73.82;;
25824;SDS011;13658;44.534;18.694;2023-02-17T05:36:32;157.52;;;69.38;;
25824;SDS011;13658;44.534;18.694;2023-02-17T05:38:58;149.75;;;67.82;;
25824;SDS011;13658;44.534;18.694;2023-02-17T05:41:24;146.18;;;65.38;;
25824;SDS011;13658;44.534;18.694;2023-02-17T05:43:50;148.10;;;68.72;;
25824;SDS011;13658;44.534;18.694;2023-02-17T05:46:16;148.90;;;64.75;;
25824;SDS011;13658;44.534;18.694;2023-02-17T05:48:42;136.75;;;62.42;;
25824;SDS011;13658;44.534;18.694;2023-02-17T05:51:10;136.00;;;63.00;;
25824;SDS011;13658;44.534;18.694;2023-02-17T05:53:38;155.52;;;71.28;;
25824;SDS011;13658;44.534;18.694;2023-02-17T05:56:04;126.70;;;59.85;;
25824;SDS011;13658;44.534;18.694;2023-02-17T05:58:30;127.70;;;59.80;;
25824;SDS011;13658;44.534;18.694;2023-02-17T06:00:56;153.02;;;68.15;;
25824;SDS011;13658;44.534;18.694;2023-02-17T06:03:22;151.00;;;68.13;;
25824;SDS011;13658;44.534;18.694;2023-02-17T06:05:48;145.32;;;66.72;;
25824;SDS011;13658;44.534;18.694;2023-02-17T06:08:14;146.80;;;66.82;;
25824;SDS011;13658;44.534;18.694;2023-02-17T06:10:40;147.77;;;67.85;;
25824;SDS011;13658;44.534;18.694;2023-02-17T06:13:07;158.98;;;69.97;;
25824;SDS011;13658;44.534;18.694;2023-02-17T06:15:33;158.98;;;73.45;;
25824;SDS011;13658;44.534;18.694;2023-02-17T06:17:59;163.07;;;73.53;;
25824;SDS011;13658;44.534;18.694;2023-02-17T06:20:25;171.40;;;81.00;;
25824;SDS011;13658;44.534;18.694;2023-02-17T06:22:51;175.10;;;81.80;;
25824;SDS011;13658;44.534;18.694;2023-02-17T06:25:17;176.55;;;80.75;;
25824;SDS011;13658;44.534;18.694;2023-02-17T06:27:42;141.85;;;64.55;;
25824;SDS011;13658;44.534;18.694;2023-02-17T06:30:09;105.28;;;50.40;;
25824;SDS011;13658;44.534;18.694;2023-02-17T06:32:35;115.13;;;53.65;;
25824;SDS011;13658;44.534;18.694;2023-02-17T06:35:02;124.20;;;55.45;;
25824;SDS011;13658;44.534;18.694;2023-02-17T06:37:28;137.10;;;62.95;;
25824;SDS011;13658;44.534;18.694;2023-02-17T06:39:54;165.40;;;79.03;;
25824;SDS011;13658;44.534;18.694;2023-02-17T06:42:19;182.32;;;85.80;;
25824;SDS011;13658;44.534;18.694;2023-02-17T06:44:45;181.13;;;87.57;;
25824;SDS011;13658;44.534;18.694;2023-02-17T06:47:12;180.75;;;90.50;;
25824;SDS011;13658;44.534;18.694;2023-02-17T06:49:38;189.25;;;92.95;;
25824;SDS011;13658;44.534;18.694;2023-02-17T06:52:04;203.18;;;98.55;;
25824;SDS011;13658;44.534;18.694;2023-02-17T06:54:30;211.25;;;99.65;;
25824;SDS011;13658;44.534;18.694;2023-02-17T06:56:56;214.35;;;104.63;;
25824;SDS011;13658;44.534;18.694;2023-02-17T06:59:22;197.98;;;99.30;;
25824;SDS011;13658;44.534;18.694;2023-02-17T07:01:48;188.85;;;90.20;;
25824;SDS011;13658;44.534;18.694;2023-02-17T07:04:14;172.88;;;86.75;;
25824;SDS011;13658;44.534;18.694;2023-02-17T07:06:41;186.95;;;95.47;;
25824;SDS011;13658;44.534;18.694;2023-02-17T07:09:07;168.68;;;89.03;;
25824;SDS011;13658;44.534;18.694;2023-02-17T07:11:35;149.23;;;81.78;;
25824;SDS011;13658;44.534;18.694;2023-02-17T07:14:01;144.98;;;77.10;;
25824;SDS011;13658;44.534;18.694;2023-02-17T07:16:27;135.57;;;72.82;;
25824;SDS011;13658;44.534;18.694;2023-02-17T07:18:53;134.57;;;72.70;;
25824;SDS011;13658;44.534;18.694;2023-02-17T07:21:20;142.70;;;79.28;;
25824;SDS011;13658;44.534;18.694;2023-02-17T07:23:46;159.38;;;87.35;;
25824;SDS011;13658;44.534;18.694;2023-02-17T07:26:12;169.40;;;94.50;;
25824;SDS011;13658;44.534;18.694;2023-02-17T07:28:39;186.90;;;105.55;;
25824;SDS011;13658;44.534;18.694;2023-02-17T07:31:06;206.05;;;114.07;;
25824;SDS011;13658;44.534;18.694;2023-02-17T07:33:34;224.63;;;121.90;;
25824;SDS011;13658;44.534;18.694;2023-02-17T07:36:07;264.38;;;135.18;;
25824;SDS011;13658;44.534;18.694;2023-02-17T07:38:35;204.13;;;104.03;;
25824;SDS011;13658;44.534;18.694;2023-02-17T07:41:08;267.05;;;136.30;;
25824;SDS011;13658;44.534;18.694;2023-02-17T07:43:45;268.08;;;136.05;;
25824;SDS011;13658;44.534;18.694;2023-02-17T07:46:14;262.50;;;133.60;;
25824;SDS011;13658;44.534;18.694;2023-02-17T07:48:41;254.57;;;125.82;;
25824;SDS011;13658;44.534;18.694;2023-02-17T07:51:08;236.77;;;119.13;;
25824;SDS011;13658;44.534;18.694;2023-02-17T07:53:35;225.43;;;110.82;;
25824;SDS011;13658;44.534;18.694;2023-02-17T07:56:06;215.90;;;109.40;;
25824;SDS011;13658;44.534;18.694;2023-02-17T07:58:34;200.23;;;101.75;;
25824;SDS011;13658;44.534;18.694;2023-02-17T08:01:12;185.10;;;90.40;;
25824;SDS011;13658;44.534;18.694;2023-02-17T08:03:40;174.55;;;86.32;;
25824;SDS011;13658;44.534;18.694;2023-02-17T08:06:11;191.85;;;97.70;;
25824;SDS011;13658;44.534;18.694;2023-02-17T08:08:39;226.80;;;108.38;;
25824;SDS011;13658;44.534;18.694;2023-02-17T08:11:23;220.70;;;109.70;;
25824;SDS011;13658;44.534;18.694;2023-02-17T08:14:08;147.27;;;71.93;;
25824;SDS011;13658;44.534;18.694;2023-02-17T08:16:34;210.10;;;103.10;;
25824;SDS011;13658;44.534;18.694;2023-02-17T08:19:00;203.95;;;99.53;;
25824;SDS011;13658;44.534;18.694;2023-02-17T08:21:26;188.63;;;95.95;;
25824;SDS011;13658;44.534;18.694;2023-02-17T08:23:53;184.27;;;89.10;;
25824;SDS011;13658;44.534;18.694;2023-02-17T08:26:19;203.98;;;99.68;;
25824;SDS011;13658;44.534;18.694;2023-02-17T08:28:46;184.07;;;93.32;;
25824;SDS011;13658;44.534;18.694;2023-02-17T08:31:14;288.08;;;148.50;;
25824;SDS011;13658;44.534;18.694;2023-02-17T08:33:45;243.48;;;127.47;;
25824;SDS011;13658;44.534;18.694;2023-02-17T08:36:11;188.93;;;105.30;;
25824;SDS011;13658;44.534;18.694;2023-02-17T08:38:38;145.82;;;81.93;;
25824;SDS011;13658;44.534;18.694;2023-02-17T08:41:14;126.65;;;73.18;;
25824;SDS011;13658;44.534;18.694;2023-02-17T08:43:43;112.20;;;70.85;;
25824;SDS011;13658;44.534;18.694;2023-02-17T08:46:09;110.60;;;67.38;;
25824;SDS011;13658;44.534;18.694;2023-02-17T08:48:37;114.15;;;79.05;;
25824;SDS011;13658;44.534;18.694;2023-02-17T08:51:03;105.05;;;68.88;;
25824;SDS011;13658;44.534;18.694;2023-02-17T08:53:29;93.97;;;64.38;;
25824;SDS011;13658;44.534;18.694;2023-02-17T08:55:56;85.47;;;58.47;;
25824;SDS011;13658;44.534;18.694;2023-02-17T08:58:22;87.60;;;58.42;;
25824;SDS011;13658;44.534;18.694;2023-02-17T09:00:48;96.88;;;63.50;;
25824;SDS011;13658;44.534;18.694;2023-02-17T09:03:14;95.80;;;63.88;;
25824;SDS011;13658;44.534;18.694;2023-02-17T09:05:40;93.55;;;65.25;;
25824;SDS011;13658;44.534;18.694;2023-02-17T09:08:06;87.88;;;63.17;;
25824;SDS011;13658;44.534;18.694;2023-02-17T09:10:32;80.43;;;57.90;;
25824;SDS011;13658;44.534;18.694;2023-02-17T09:12:58;75.55;;;54.22;;
25824;SDS011;13658;44.534;18.694;2023-02-17T09:15:24;72.93;;;51.95;;
25824;SDS011;13658;44.534;18.694;2023-02-17T09:17:50;62.60;;;44.45;;
25824;SDS011;13658;44.534;18.694;2023-02-17T09:20:16;47.97;;;36.63;;
25824;SDS011;13658;44.534;18.694;2023-02-17T09:22:43;57.80;;;41.47;;
25824;SDS011;13658;44.534;18.694;2023-02-17T09:25:09;44.42;;;32.05;;
25824;SDS011;13658;44.534;18.694;2023-02-17T09:27:35;45.50;;;33.90;;
25824;SDS011;13658;44.534;18.694;2023-02-17T09:30:01;47.50;;;36.13;;
25824;SDS011;13658;44.534;18.694;2023-02-17T09:32:28;50.45;;;36.60;;
25824;SDS011;13658;44.534;18.694;2023-02-17T09:34:54;52.40;;;37.00;;
25824;SDS011;13658;44.534;18.694;2023-02-17T09:37:20;52.35;;;37.22;;
25824;SDS011;13658;44.534;18.694;2023-02-17T09:39:47;56.63;;;38.75;;
25824;SDS011;13658;44.534;18.694;2023-02-17T09:42:23;59.45;;;40.35;;
25824;SDS011;13658;44.534;18.694;2023-02-17T09:45:04;53.45;;;39.53;;
25824;SDS011;13658;44.534;18.694;2023-02-17T09:50:18;72.40;;;47.38;;
25824;SDS011;13658;44.534;18.694;2023-02-17T09:52:56;76.65;;;49.60;;
25824;SDS011;13658;44.534;18.694;2023-02-17T09:55:29;93.70;;;58.63;;
25824;SDS011;13658;44.534;18.694;2023-02-17T09:58:01;79.20;;;55.15;;
25824;SDS011;13658;44.534;18.694;2023-02-17T10:00:37;72.50;;;46.58;;
25824;SDS011;13658;44.534;18.694;2023-02-17T10:08:39;43.33;;;29.45;;
25824;SDS011;13658;44.534;18.694;2023-02-17T10:11:23;36.55;;;26.08;;
25824;SDS011;13658;44.534;18.694;2023-02-17T10:13:50;40.55;;;30.08;;
25824;SDS011;13658;44.534;18.694;2023-02-17T10:16:24;46.38;;;29.15;;
25824;SDS011;13658;44.534;18.694;2023-02-17T10:18:59;45.88;;;30.95;;
25824;SDS011;13658;44.534;18.694;2023-02-17T10:21:31;46.35;;;31.95;;
25824;SDS011;13658;44.534;18.694;2023-02-17T10:24:03;30.42;;;22.80;;
25824;SDS011;13658;44.534;18.694;2023-02-17T10:35:01;40.88;;;26.88;;
25824;SDS011;13658;44.534;18.694;2023-02-17T10:37:32;36.67;;;27.42;;
25824;SDS011;13658;44.534;18.694;2023-02-17T10:40:06;41.80;;;29.08;;
25824;SDS011;13658;44.534;18.694;2023-02-17T10:42:39;40.78;;;30.48;;
25824;SDS011;13658;44.534;18.694;2023-02-17T10:45:28;59.40;;;30.92;;
25824;SDS011;13658;44.534;18.694;2023-02-17T10:48:05;43.97;;;31.15;;
25824;SDS011;13658;44.534;18.694;2023-02-17T10:50:50;35.83;;;26.95;;
25824;SDS011;13658;44.534;18.694;2023-02-17T10:53:18;39.63;;;29.33;;
25824;SDS011;13658;44.534;18.694;2023-02-17T11:01:27;32.13;;;24.58;;
25824;SDS011;13658;44.534;18.694;2023-02-17T11:06:26;33.87;;;26.20;;
25824;SDS011;13658;44.534;18.694;2023-02-17T11:11:27;38.58;;;25.13;;
25824;SDS011;13658;44.534;18.694;2023-02-17T11:16:41;32.75;;;23.65;;
25824;SDS011;13658;44.534;18.694;2023-02-17T11:21:53;29.70;;;21.88;;
25824;SDS011;13658;44.534;18.694;2023-02-17T11:24:21;24.10;;;16.30;;
25824;SDS011;13658;44.534;18.694;2023-02-17T11:27:01;17.02;;;12.38;;
25824;SDS011;13658;44.534;18.694;2023-02-17T11:29:27;28.50;;;16.48;;
25824;SDS011;13658;44.534;18.694;2023-02-17T11:31:59;27.55;;;16.13;;
25824;SDS011;13658;44.534;18.694;2023-02-17T11:34:32;28.38;;;18.63;;
25824;SDS011;13658;44.534;18.694;2023-02-17T11:39:28;20.83;;;13.48;;
25824;SDS011;13658;44.534;18.694;2023-02-17T11:41:54;26.75;;;14.10;;
25824;SDS011;13658;44.534;18.694;2023-02-17T11:44:22;20.33;;;13.93;;
25824;SDS011;13658;44.534;18.694;2023-02-17T11:47:01;20.90;;;13.00;;
25824;SDS011;13658;44.534;18.694;2023-02-17T12:08:14;21.55;;;13.95;;
25824;SDS011;13658;44.534;18.694;2023-02-17T12:21:43;27.77;;;14.35;;
25824;SDS011;13658;44.534;18.694;2023-02-17T12:24:38;21.90;;;12.23;;
25824;SDS011;13658;44.534;18.694;2023-02-17T12:27:23;18.75;;;9.70;;
25824;SDS011;13658;44.534;18.694;2023-02-17T12:37:52;14.00;;;9.57;;
25824;SDS011;13658;44.534;18.694;2023-02-17T12:43:29;21.60;;;11.32;;
25824;SDS011;13658;44.534;18.694;2023-02-17T12:51:34;17.33;;;10.07;;
25824;SDS011;13658;44.534;18.694;2023-02-17T12:59:21;16.80;;;10.35;;
25824;SDS011;13658;44.534;18.694;2023-02-17T13:01:56;16.27;;;9.40;;
25824;SDS011;13658;44.534;18.694;2023-02-17T13:04:46;14.68;;;9.45;;
25824;SDS011;13658;44.534;18.694;2023-02-17T13:09:45;26.55;;;13.70;;
25824;SDS011;13658;44.534;18.694;2023-02-17T13:14:42;27.33;;;15.15;;
25824;SDS011;13658;44.534;18.694;2023-02-17T13:19:59;18.05;;;11.88;;
25824;SDS011;13658;44.534;18.694;2023-02-17T13:22:27;17.83;;;11.98;;
25824;SDS011;13658;44.534;18.694;2023-02-17T13:24:53;18.70;;;11.82;;
25824;SDS011;13658;44.534;18.694;2023-02-17T13:27:21;29.27;;;14.40;;
25824;SDS011;13658;44.534;18.694;2023-02-17T13:29:58;23.48;;;12.05;;
25824;SDS011;13658;44.534;18.694;2023-02-17T13:32:31;21.55;;;12.77;;
25824;SDS011;13658;44.534;18.694;2023-02-17T13:35:02;18.20;;;12.35;;
25824;SDS011;13658;44.534;18.694;2023-02-17T13:37:43;18.00;;;12.75;;
25824;SDS011;13658;44.534;18.694;2023-02-17T13:42:43;23.75;;;13.98;;
25824;SDS011;13658;44.534;18.694;2023-02-17T13:53:20;28.50;;;15.45;;
25824;SDS011;13658;44.534;18.694;2023-02-17T13:55:49;21.13;;;12.95;;
25824;SDS011;13658;44.534;18.694;2023-02-17T13:58:20;29.35;;;15.02;;
25824;SDS011;13658;44.534;18.694;2023-02-17T14:00:47;22.25;;;13.38;;
25824;SDS011;13658;44.534;18.694;2023-02-17T14:03:21;21.23;;;13.20;;
25824;SDS011;13658;44.534;18.694;2023-02-17T14:05:52;20.92;;;12.68;;
25824;SDS011;13658;44.534;18.694;2023-02-17T14:11:00;27.63;;;14.55;;
25824;SDS011;13658;44.534;18.694;2023-02-17T14:13:31;29.70;;;14.75;;
25824;SDS011;13658;44.534;18.694;2023-02-17T14:15:58;25.02;;;14.05;;
25824;SDS011;13658;44.534;18.694;2023-02-17T14:18:38;25.10;;;13.55;;
25824;SDS011;13658;44.534;18.694;2023-02-17T14:21:07;25.63;;;13.25;;
25824;SDS011;13658;44.534;18.694;2023-02-17T14:23:48;21.90;;;13.80;;
25824;SDS011;13658;44.534;18.694;2023-02-17T14:29:01;24.67;;;13.82;;
25824;SDS011;13658;44.534;18.694;2023-02-17T14:31:35;23.63;;;12.95;;
25824;SDS011;13658;44.534;18.694;2023-02-17T14:36:45;20.45;;;12.68;;
25824;SDS011;13658;44.534;18.694;2023-02-17T14:39:12;18.30;;;11.40;;
25824;SDS011;13658;44.534;18.694;2023-02-17T14:41:39;23.88;;;13.98;;
25824;SDS011;13658;44.534;18.694;2023-02-17T14:44:06;22.10;;;14.05;;
25824;SDS011;13658;44.534;18.694;2023-02-17T14:46:33;28.58;;;14.45;;
25824;SDS011;13658;44.534;18.694;2023-02-17T14:48:59;21.17;;;12.23;;
25824;SDS011;13658;44.534;18.694;2023-02-17T14:51:30;24.55;;;14.30;;
25824;SDS011;13658;44.534;18.694;2023-02-17T14:54:00;20.02;;;12.90;;
25824;SDS011;13658;44.534;18.694;2023-02-17T14:56:29;20.20;;;12.93;;
25824;SDS011;13658;44.534;18.694;2023-02-17T14:59:01;21.02;;;12.55;;
25824;SDS011;13658;44.534;18.694;2023-02-17T15:01:28;20.55;;;12.35;;
25824;SDS011;13658;44.534;18.694;2023-02-17T15:03:54;21.27;;;12.93;;
25824;SDS011;13658;44.534;18.694;2023-02-17T15:06:29;21.98;;;12.45;;
25824;SDS011;13658;44.534;18.694;2023-02-17T15:09:12;22.42;;;12.93;;
25824;SDS011;13658;44.534;18.694;2023-02-17T15:14:11;20.50;;;12.00;;
25824;SDS011;13658;44.534;18.694;2023-02-17T15:16:39;19.80;;;11.93;;
25824;SDS011;13658;44.534;18.694;2023-02-17T15:19:05;18.63;;;11.75;;
25824;SDS011;13658;44.534;18.694;2023-02-17T15:21:31;26.45;;;13.15;;
25824;SDS011;13658;44.534;18.694;2023-02-17T15:23:59;36.17;;;16.50;;
25824;SDS011;13658;44.534;18.694;2023-02-17T15:26:26;43.90;;;22.35;;
25824;SDS011;13658;44.534;18.694;2023-02-17T15:28:57;39.22;;;20.45;;
25824;SDS011;13658;44.534;18.694;2023-02-17T15:31:31;60.22;;;26.98;;
25824;SDS011;13658;44.534;18.694;2023-02-17T15:34:00;59.40;;;30.50;;
25824;SDS011;13658;44.534;18.694;2023-02-17T15:36:27;98.93;;;46.58;;
25824;SDS011;13658;44.534;18.694;2023-02-17T15:38:53;100.70;;;49.28;;
25824;SDS011;13658;44.534;18.694;2023-02-17T15:41:20;116.97;;;56.92;;
25824;SDS011;13658;44.534;18.694;2023-02-17T15:43:51;125.63;;;60.67;;
25824;SDS011;13658;44.534;18.694;2023-02-17T15:46:20;127.03;;;62.25;;
25824;SDS011;13658;44.534;18.694;2023-02-17T15:48:49;167.73;;;82.88;;
25824;SDS011;13658;44.534;18.694;2023-02-17T15:51:16;173.23;;;85.05;;
25824;SDS011;13658;44.534;18.694;2023-02-17T15:53:44;215.77;;;115.82;;
25824;SDS011;13658;44.534;18.694;2023-02-17T15:56:11;259.33;;;133.77;;
25824;SDS011;13658;44.534;18.694;2023-02-17T15:58:41;241.25;;;124.88;;
25824;SDS011;13658;44.534;18.694;2023-02-17T16:01:10;254.85;;;126.68;;
25824;SDS011;13658;44.534;18.694;2023-02-17T16:03:42;247.70;;;122.57;;
25824;SDS011;13658;44.534;18.694;2023-02-17T16:06:08;238.05;;;116.93;;
25824;SDS011;13658;44.534;18.694;2023-02-17T16:08:35;250.38;;;123.03;;
25824;SDS011;13658;44.534;18.694;2023-02-17T16:11:00;249.55;;;125.35;;
25824;SDS011;13658;44.534;18.694;2023-02-17T16:13:27;247.85;;;124.68;;
25824;SDS011;13658;44.534;18.694;2023-02-17T16:15:54;235.52;;;118.85;;
25824;SDS011;13658;44.534;18.694;2023-02-17T16:18:23;237.18;;;121.50;;
25824;SDS011;13658;44.534;18.694;2023-02-17T16:20:49;245.07;;;119.05;;
25824;SDS011;13658;44.534;18.694;2023-02-17T16:23:16;231.07;;;113.10;;
25824;SDS011;13658;44.534;18.694;2023-02-17T16:25:43;218.38;;;108.53;;